Terminal Aerodrome Forecast
Issued by NWS

Home | Current Version | Previous Version | Text Only | Print | Product List | Glossary On
Versions: 1 2 3 4 5 6 7 8 9 10 11 12 13 14 15 16 17 18 19 20
892
FTAK31 PAJN 222340
TAFAKT
TAF
PAKT 222340Z 2300/2324 13011KT P6SM VCSH FEW025 BKN035 BKN050
      TEMPO 2300/2303 6SM -SHRA FEW015 BKN025 OVC030
     FM230800 14006KT P6SM VCSH SCT025 OVC040
     FM231800 12009KT P6SM BKN050
      AMD LTD TO CLD VIS AND WIND 2306/2315=

USA.gov is the U.S. government's official web portal to all federal, state and local government web resources and services.